EPWR

Copernicus Wrocław Airport

Wrocław, Poland

EPWR 260630Z 31004KT CAVOK 02/01 Q1025

Observed Flight Rules
Mar-26 @ 06:30 UTC (38 minutes ago)
 
Visual Flight Rules
Wind Visibility Clouds
310° at 4 knots 10 km or more
  • Clear skies
Temperatures Readings
Current 2°C / 36°F
Dewpoint 1°C / 34°F
Humidity 93%
Altimeter 30.27" Hg
Pressure 1025 hPa
Elevation 121.0
Observed Flight Rules
Mar-26 @ 06:30 UTC
(38 minutes ago)
 
VFR
Wind Visibility
310° at 4 knots 10 km or more
Clouds
  • Clear skies
Temperature Dewpoint
2°C / 36°F 1°C / 34°F
Humidity Altimeter Pressure
93% 30.27" Hg 1025 hPa